createdAt,value
2023-03-29T10:41:13.775Z,46.48
2023-03-29T10:42:24.826Z,46.35
2023-03-29T10:43:40.187Z,46.08
2023-03-29T10:44:51.457Z,46.51
2023-03-29T10:45:57.918Z,46.43
2023-03-29T10:47:23.434Z,46.63
2023-03-29T10:48:34.411Z,46.79
2023-03-29T10:49:47.054Z,47.34
2023-03-29T10:50:57.238Z,47.15
2023-03-29T10:52:14.925Z,47.50
2023-03-29T10:53:36.332Z,47.32
2023-03-29T10:54:43.535Z,47.28
2023-03-29T10:55:58.743Z,47.32
2023-03-29T10:57:10.891Z,47.74
2023-03-29T10:58:27.690Z,48.02
2023-03-29T10:59:37.920Z,48.05
2023-03-29T11:00:51.493Z,47.95
2023-03-29T11:02:20.427Z,48.37
2023-03-29T11:04:03.305Z,48.63
2023-03-29T11:05:24.181Z,48.85
2023-03-29T11:06:40.162Z,48.97
2023-03-29T11:07:57.839Z,49.24
2023-03-29T11:09:24.179Z,48.80
2023-03-29T11:10:46.161Z,49.49
2023-03-29T11:12:15.603Z,49.04
2023-03-29T11:13:30.823Z,49.34
2023-03-29T11:14:43.221Z,49.23
2023-03-29T11:15:59.752Z,48.94
2023-03-29T11:17:18.630Z,49.35
2023-03-29T11:18:40.967Z,49.83
2023-03-29T11:19:59.227Z,49.42
2023-03-29T11:21:11.702Z,49.37
2023-03-29T11:22:24.466Z,49.62
2023-03-29T11:23:41.930Z,49.97
2023-03-29T11:25:06.384Z,49.72
2023-03-29T11:26:18.475Z,50.15
2023-03-29T11:27:32.252Z,50.41
2023-03-29T11:28:45.615Z,50.42
2023-03-29T11:30:19.636Z,50.34
2023-03-29T11:31:38.822Z,50.32
2023-03-29T11:32:55.381Z,51.29
2023-03-29T11:34:24.858Z,51.28
2023-03-29T11:35:45.255Z,50.87
2023-03-29T11:37:03.567Z,51.88
2023-03-29T11:38:28.652Z,51.06
2023-03-29T11:39:45.981Z,51.48
2023-03-29T11:41:02.205Z,51.42
2023-03-29T11:42:15.788Z,51.93
2023-03-29T11:43:28.828Z,51.80
2023-03-29T11:44:37.516Z,51.33
2023-03-29T11:45:46.995Z,51.88
2023-03-29T11:47:00.174Z,51.68
2023-03-29T11:48:09.177Z,51.80
2023-03-29T11:49:23.587Z,51.99
2023-03-29T11:50:34.764Z,51.78
2023-03-29T11:51:46.788Z,51.76
2023-03-29T11:52:56.097Z,51.55
2023-03-29T11:54:09.632Z,51.77
2023-03-29T11:55:25.364Z,51.47
2023-03-29T11:56:37.278Z,52.19
2023-03-29T11:57:47.071Z,51.68
2023-03-29T11:59:03.095Z,51.43
2023-03-29T12:00:21.264Z,51.71
2023-03-29T12:01:33.645Z,51.66
2023-03-29T12:02:43.449Z,52.32
2023-03-29T12:03:55.453Z,51.81
2023-03-29T12:05:05.638Z,51.94
2023-03-29T12:06:19.376Z,52.15
2023-03-29T12:07:31.895Z,51.81
2023-03-29T12:08:40.944Z,52.05
2023-03-29T12:09:51.938Z,52.64
2023-03-29T12:11:07.163Z,52.33
2023-03-29T12:12:24.903Z,52.87
2023-03-29T12:13:36.761Z,52.75
2023-03-29T12:14:56.802Z,52.92
2023-03-29T12:16:12.232Z,53.60
2023-03-29T12:17:23.931Z,52.96
2023-03-29T12:18:33.285Z,53.75
2023-03-29T12:19:43.794Z,54.42
2023-03-29T12:20:57.141Z,53.98
2023-03-29T12:22:04.066Z,53.65
2023-03-29T12:23:18.786Z,53.31
2023-03-29T12:24:27.523Z,53.33
2023-03-29T12:25:39.415Z,55.24
2023-03-29T12:27:22.307Z,54.90
2023-03-29T12:28:49.675Z,55.08
2023-03-29T12:30:28.791Z,55.03
2023-03-29T12:31:41.518Z,55.44
2023-03-29T12:32:58.419Z,55.24
2023-03-29T12:34:31.263Z,55.28
2023-03-29T12:35:46.675Z,55.25
2023-03-29T12:37:10.826Z,55.71
2023-03-29T12:38:28.679Z,55.41
2023-03-29T12:39:39.216Z,55.23
2023-03-29T12:40:47.882Z,55.57
2023-03-29T12:41:56.696Z,55.23
2023-03-29T12:43:09.564Z,56.53
2023-03-29T12:44:19.370Z,55.36
2023-03-29T12:45:49.893Z,56.35
2023-03-29T12:47:00.462Z,56.55
2023-03-29T12:48:08.035Z,56.13
2023-03-29T12:49:21.031Z,57.75
2023-03-29T12:50:54.866Z,57.50
2023-03-29T12:52:04.378Z,57.25
2023-03-29T12:53:20.465Z,57.42
2023-03-29T12:54:35.524Z,57.52
2023-03-29T12:55:56.357Z,57.86
2023-03-29T12:57:09.056Z,57.78
2023-03-29T12:58:35.139Z,57.58
2023-03-29T12:59:48.354Z,57.94
2023-03-29T13:01:08.511Z,58.08
2023-03-29T13:02:47.390Z,59.14
2023-03-29T13:03:54.822Z,58.37
2023-03-29T13:05:03.732Z,59.45
2023-03-29T13:06:15.577Z,59.14
2023-03-29T13:07:53.489Z,59.47
2023-03-29T16:38:07.672Z,66.05
2023-03-29T16:39:16.310Z,65.16
2023-03-29T16:40:22.637Z,65.39
2023-03-29T16:41:29.335Z,65.41
2023-03-29T16:42:36.118Z,65.53
2023-03-29T16:43:42.860Z,64.96
2023-03-29T16:44:49.583Z,65.45
2023-03-29T16:45:56.575Z,64.96
2023-03-29T16:47:03.471Z,65.30
2023-03-29T16:48:08.942Z,64.95
2023-03-29T16:49:19.642Z,65.41
2023-03-29T16:50:26.510Z,64.98
2023-03-29T16:51:33.340Z,65.05
2023-03-29T16:52:40.571Z,65.27
2023-03-29T16:53:45.922Z,65.33
2023-03-29T16:54:54.656Z,65.44
2023-03-29T16:56:01.685Z,65.28
2023-03-29T16:57:09.267Z,64.83
2023-03-29T16:58:16.803Z,64.96
2023-03-29T16:59:23.558Z,64.98
2023-03-29T17:00:30.817Z,65.37
2023-03-29T17:01:37.757Z,65.44
2023-03-29T17:02:44.580Z,65.51
2023-03-29T17:03:51.294Z,65.43
2023-03-29T17:04:56.810Z,65.51
2023-03-29T17:06:04.019Z,65.73
2023-03-29T17:07:10.962Z,66.07
2023-03-29T17:08:16.428Z,66.15
2023-03-29T17:09:23.276Z,66.14
2023-03-29T17:10:31.728Z,67.09
2023-03-29T17:11:38.669Z,65.94
2023-03-29T17:12:45.445Z,65.91
2023-03-29T17:13:50.803Z,66.38
2023-03-29T17:14:57.572Z,65.91
2023-03-29T17:16:03.367Z,65.67
2023-03-29T17:17:10.818Z,66.06
2023-03-29T17:18:17.645Z,65.79
2023-03-29T17:19:24.410Z,65.76
2023-03-29T17:20:29.900Z,66.12
2023-03-29T17:21:36.821Z,66.74
2023-03-29T17:22:43.977Z,66.48
2023-03-29T17:23:49.331Z,66.41
2023-03-29T17:24:56.153Z,66.25
2023-03-29T17:26:05.047Z,66.39
2023-03-29T17:27:12.043Z,66.36
2023-03-29T17:28:17.460Z,66.58
2023-03-29T17:29:24.182Z,66.54
2023-03-29T17:30:29.644Z,66.44
2023-03-29T17:31:37.793Z,66.67
2023-03-29T17:32:43.236Z,66.54
2023-03-29T17:33:52.233Z,66.15
2023-03-29T17:35:00.766Z,66.13
2023-03-29T17:36:07.573Z,66.25
2023-03-29T17:37:14.695Z,65.99
2023-03-29T17:38:21.800Z,65.93
2023-03-29T17:39:29.121Z,66.45
2023-03-29T17:40:34.440Z,66.50
2023-03-29T17:41:43.550Z,66.72
2023-03-29T17:42:49.693Z,65.91
2023-03-29T17:43:56.385Z,66.39
2023-03-29T17:45:01.783Z,65.92
2023-03-29T17:46:08.856Z,66.15
2023-03-29T17:47:15.554Z,65.80
2023-03-29T17:48:22.768Z,66.30
2023-03-29T17:49:31.505Z,65.78
2023-03-29T17:50:38.336Z,66.40
2023-03-29T17:51:45.165Z,66.41
2023-03-29T17:52:50.710Z,65.78
2023-03-29T17:53:58.643Z,66.30
2023-03-29T17:55:04.115Z,66.47
2023-03-29T17:56:11.821Z,66.60
2023-03-29T17:57:20.356Z,66.73
2023-03-29T17:58:27.108Z,66.11
2023-03-29T17:59:33.808Z,66.28
2023-03-29T18:00:39.528Z,66.50
2023-03-29T18:01:46.459Z,66.91
2023-03-29T18:02:53.212Z,66.60
2023-03-29T18:04:00.058Z,66.46
2023-03-29T18:05:06.065Z,66.37
2023-03-29T18:06:13.072Z,66.50
2023-03-29T18:07:18.949Z,66.28
2023-03-29T18:08:25.606Z,66.55
2023-03-29T18:09:31.155Z,66.95
2023-03-29T18:10:38.326Z,66.88
2023-03-29T18:11:43.672Z,66.30
2023-03-29T18:12:52.137Z,67.09
2023-03-29T18:14:01.671Z,66.85
2023-03-29T18:15:08.969Z,66.83
2023-03-29T18:16:14.396Z,66.42
2023-03-29T18:17:21.116Z,66.94
2023-03-29T18:18:28.241Z,66.27
2023-03-29T18:19:34.997Z,66.76
2023-03-29T18:20:43.625Z,66.13
2023-03-29T18:21:50.329Z,66.35
2023-03-29T18:22:55.721Z,66.37
2023-03-29T18:24:02.551Z,66.71
2023-03-29T18:25:08.953Z,66.37
2023-03-29T18:26:16.208Z,66.74
2023-03-29T18:27:22.054Z,66.25
2023-03-29T18:28:30.471Z,66.21
2023-03-29T18:29:35.980Z,66.48
2023-03-29T18:30:42.722Z,66.66
2023-03-29T18:31:49.773Z,66.38
2023-03-29T18:32:56.617Z,66.58
2023-03-29T18:34:03.687Z,66.31
2023-03-29T18:35:11.281Z,67.29
2023-03-29T18:36:18.284Z,67.19
2023-03-29T18:37:25.193Z,67.05
2023-03-29T18:38:31.151Z,66.53
2023-03-29T18:39:38.764Z,66.54
2023-03-29T18:40:45.450Z,66.80
2023-03-29T18:41:52.095Z,66.76
2023-03-29T18:42:57.401Z,66.45
2023-03-29T18:44:05.785Z,65.75
2023-03-29T18:45:13.348Z,66.02
2023-03-29T18:46:18.769Z,66.14
2023-03-29T18:47:25.420Z,66.28
2023-03-29T18:48:31.022Z,65.67
2023-03-29T18:49:38.097Z,66.18
2023-03-29T18:50:46.842Z,65.74
2023-03-29T18:51:53.506Z,65.33
2023-03-29T18:52:58.771Z,65.17
2023-03-29T18:54:05.773Z,65.26
2023-03-29T18:55:11.802Z,65.71
2023-03-29T18:56:18.482Z,64.91
2023-03-29T18:57:25.175Z,65.58
2023-03-29T18:58:30.666Z,65.67
2023-03-29T18:59:39.150Z,65.55
2023-03-29T19:00:45.353Z,65.31
2023-03-29T19:01:52.043Z,65.38
2023-03-29T19:02:58.749Z,65.27
2023-03-29T19:04:05.439Z,65.85
2023-03-29T19:05:12.793Z,65.14
2023-03-29T19:06:19.496Z,65.74
2023-03-29T19:07:26.110Z,65.79
2023-03-29T19:08:34.398Z,65.75
2023-03-29T19:09:39.710Z,65.45
2023-03-29T19:10:46.486Z,65.25
2023-03-29T19:11:53.160Z,65.38
2023-03-29T19:12:59.806Z,65.56
2023-03-29T19:14:06.625Z,65.14
2023-03-29T19:15:16.070Z,65.40
2023-03-29T19:16:21.955Z,65.09
2023-03-29T19:17:29.171Z,65.45
2023-03-29T19:18:35.990Z,64.89
2023-03-29T19:19:47.379Z,65.05
2023-03-29T19:20:55.592Z,65.26
2023-03-29T19:22:02.267Z,64.72
2023-03-29T19:23:07.666Z,64.97
2023-03-29T19:24:14.412Z,65.14
2023-03-29T19:25:21.224Z,65.43
2023-03-29T19:26:26.824Z,65.13
2023-03-29T19:27:33.612Z,65.56
2023-03-29T19:28:40.363Z,65.45
2023-03-29T19:29:45.636Z,65.06
2023-03-29T19:30:54.325Z,65.67
2023-03-29T19:32:01.055Z,65.21
2023-03-29T19:33:07.929Z,65.27
2023-03-29T19:34:14.656Z,65.45
2023-03-29T19:35:20.154Z,65.81
2023-03-29T19:36:26.805Z,65.25
2023-03-29T19:37:33.477Z,65.96
2023-03-29T19:38:40.200Z,65.32
2023-03-29T19:39:46.206Z,65.40
2023-03-29T19:40:54.131Z,65.50
2023-03-29T19:41:59.689Z,65.15
2023-03-29T19:43:06.328Z,65.81
2023-03-29T19:44:13.135Z,65.06
2023-03-29T19:45:18.544Z,64.98
2023-03-29T19:46:26.944Z,65.50
2023-03-29T19:47:33.909Z,65.52
2023-03-29T19:48:39.407Z,65.55
2023-03-29T19:49:47.973Z,65.70
2023-03-29T19:50:53.470Z,65.36
2023-03-29T19:52:00.107Z,65.89
2023-03-29T19:53:05.502Z,65.68
2023-03-29T19:54:14.235Z,65.36
2023-03-29T19:55:21.115Z,66.03
2023-03-29T19:56:29.392Z,65.58
2023-03-29T19:57:36.097Z,66.06
2023-03-29T19:58:41.419Z,66.24
2023-03-29T19:59:48.092Z,65.84
2023-03-29T20:00:59.523Z,65.79
2023-03-29T20:02:06.678Z,65.79
2023-03-29T20:03:15.447Z,65.56
2023-03-29T20:04:22.599Z,66.14
2023-03-29T20:05:28.086Z,66.01
2023-03-29T20:06:34.779Z,65.45
2023-03-29T20:07:40.132Z,65.71
2023-03-29T20:08:46.832Z,65.53
2023-03-29T20:09:52.157Z,65.62
2023-03-29T20:11:02.239Z,66.40
2023-03-29T20:12:08.006Z,66.19
2023-03-29T20:13:19.009Z,66.71
2023-03-29T20:14:31.427Z,66.73
2023-03-29T20:15:36.673Z,66.99
2023-03-29T20:16:44.194Z,67.10
2023-03-29T20:17:52.943Z,67.23
2023-03-29T20:19:03.375Z,66.76
2023-03-29T20:20:12.002Z,66.73
2023-03-29T20:21:18.204Z,66.74
2023-03-29T20:22:27.445Z,67.14
2023-03-29T20:23:34.035Z,67.07
2023-03-29T20:24:40.769Z,67.10
2023-03-29T20:25:47.733Z,67.47
2023-03-29T20:26:53.086Z,67.16
2023-03-29T20:28:01.160Z,67.28
2023-03-29T20:29:06.644Z,67.22
2023-03-29T20:30:14.168Z,67.12
2023-03-29T20:31:19.605Z,67.37
2023-03-29T20:32:26.304Z,67.39
2023-03-29T20:33:33.401Z,67.33
2023-03-29T20:34:40.211Z,67.47
2023-03-29T20:35:48.675Z,66.86
2023-03-29T20:36:56.638Z,66.90
2023-03-29T20:38:03.436Z,67.02
2023-03-29T20:39:09.781Z,67.10
2023-03-29T20:40:17.166Z,67.31
2023-03-29T20:41:22.490Z,67.25
2023-03-29T20:42:31.291Z,67.61
2023-03-29T20:43:38.808Z,67.43
2023-03-29T20:44:51.911Z,67.80
2023-03-29T20:45:57.306Z,68.02
2023-03-29T20:47:08.059Z,68.10
2023-03-29T20:48:13.489Z,67.92
2023-03-29T20:49:27.599Z,68.10
2023-03-29T20:50:34.332Z,67.82
2023-03-29T20:51:39.866Z,67.72
2023-03-29T20:52:46.490Z,67.97
2023-03-29T20:53:53.343Z,67.69
2023-03-29T20:55:00.709Z,67.60
2023-03-29T20:56:08.205Z,67.45
2023-03-29T20:57:16.474Z,67.27
2023-03-29T20:58:21.841Z,67.75
2023-03-29T20:59:29.308Z,67.36
2023-03-29T21:00:39.100Z,67.67
2023-03-29T21:01:44.415Z,67.62
2023-03-29T21:02:51.225Z,67.46
2023-03-29T21:03:58.267Z,67.44
2023-03-29T21:05:05.730Z,67.44
2023-03-29T21:06:15.516Z,67.18
2023-03-29T21:07:23.090Z,67.34
2023-03-29T21:08:30.203Z,67.26
2023-03-29T21:09:38.362Z,66.90
2023-03-29T21:10:45.028Z,66.93
2023-03-29T21:11:50.404Z,67.13
2023-03-29T21:13:01.503Z,67.55
2023-03-29T21:14:06.957Z,67.10
2023-03-29T21:15:14.938Z,67.87
2023-03-29T21:16:22.020Z,67.64
2023-03-29T21:17:28.887Z,67.70
2023-03-29T21:18:34.272Z,68.10
2023-03-29T21:19:42.382Z,68.56
2023-03-29T21:20:51.179Z,68.89
2023-03-29T21:21:57.812Z,68.51
2023-03-29T21:23:03.118Z,68.69
2023-03-29T21:24:10.334Z,68.49
2023-03-29T21:25:17.592Z,68.35
2023-03-29T21:26:24.281Z,68.51
2023-03-29T21:27:30.909Z,68.93
2023-03-29T21:28:39.056Z,68.85
2023-03-29T21:29:45.719Z,69.11
2023-03-29T21:30:51.162Z,69.00
2023-03-29T21:31:57.892Z,69.34
2023-03-29T21:33:03.232Z,69.22
2023-03-29T21:34:09.985Z,69.17
2023-03-29T21:35:15.518Z,69.37
2023-03-29T21:36:23.925Z,69.35
2023-03-29T21:37:29.208Z,69.15
2023-03-29T21:38:36.568Z,69.48
2023-03-29T21:39:43.807Z,69.01
2023-03-29T21:40:49.182Z,69.35
2023-03-29T21:41:55.846Z,69.26
2023-03-29T21:43:01.111Z,69.39
2023-03-29T21:44:07.780Z,69.29
2023-03-29T21:45:14.007Z,69.25
2023-03-29T21:46:20.746Z,69.21
2023-03-29T21:47:26.127Z,69.36
2023-03-29T21:48:32.783Z,69.32
2023-03-29T21:49:38.058Z,69.29
2023-03-29T21:50:44.773Z,69.46
2023-03-29T21:51:51.886Z,69.19
2023-03-29T21:52:58.656Z,69.27
2023-03-29T21:54:03.984Z,69.02
2023-03-29T21:55:11.469Z,69.07
2023-03-29T21:56:18.107Z,69.10
2023-03-29T21:57:23.419Z,69.35
2023-03-29T21:58:30.184Z,69.25
2023-03-29T21:59:36.941Z,69.19
2023-03-29T22:00:42.221Z,69.44
2023-03-29T22:01:48.925Z,69.19
2023-03-29T22:02:54.398Z,69.38
2023-03-29T22:04:01.163Z,69.04
2023-03-29T22:05:08.454Z,69.16
2023-03-29T22:06:16.408Z,69.29
2023-03-29T22:07:25.245Z,69.19
2023-03-29T22:08:30.575Z,69.02
2023-03-29T22:09:37.957Z,68.89
2023-03-29T22:10:43.475Z,68.72
2023-03-29T22:11:50.153Z,68.59
2023-03-29T22:12:55.472Z,68.94
2023-03-29T22:14:02.246Z,69.15
2023-03-29T22:15:08.493Z,68.91
2023-03-29T22:16:21.320Z,69.38
2023-03-29T22:17:28.110Z,69.13
2023-03-29T22:18:44.132Z,69.81
2023-03-29T22:19:49.517Z,69.58
2023-03-29T22:20:56.558Z,69.86
2023-03-29T22:22:03.446Z,69.71
2023-03-29T22:23:10.429Z,69.92
2023-03-29T22:24:17.103Z,69.79
2023-03-29T22:25:24.258Z,70.24
2023-03-29T22:26:32.121Z,70.30
2023-03-29T22:27:37.599Z,70.18
2023-03-29T22:28:44.329Z,70.34
2023-03-29T22:29:51.044Z,70.43
2023-03-29T22:30:56.355Z,70.74
2023-03-29T22:32:03.147Z,70.49
2023-03-29T22:33:08.691Z,70.19
2023-03-29T22:34:15.429Z,70.22
2023-03-29T22:35:20.845Z,70.40
2023-03-29T22:36:29.007Z,70.39
2023-03-29T22:37:34.328Z,70.32
2023-03-29T22:38:42.998Z,70.56
2023-03-29T22:39:48.914Z,70.45
2023-03-29T22:40:55.669Z,70.32
2023-03-29T22:42:02.430Z,70.40
2023-03-29T22:43:07.971Z,70.82
2023-03-29T22:44:14.837Z,70.77
2023-03-29T22:45:20.286Z,70.28
2023-03-29T22:46:27.859Z,70.46
2023-03-29T22:47:33.526Z,70.42
2023-03-29T22:48:40.681Z,70.50
2023-03-29T22:49:46.093Z,70.33
2023-03-29T22:50:52.794Z,70.20
2023-03-29T22:51:58.238Z,70.25
2023-03-29T22:53:04.904Z,70.16
2023-03-29T22:54:12.082Z,70.10
2023-03-29T22:55:19.100Z,70.17
2023-03-29T22:56:26.331Z,69.90
2023-03-29T22:57:31.628Z,70.27
2023-03-29T22:58:38.417Z,70.31
2023-03-29T22:59:43.872Z,70.21
2023-03-29T23:00:50.806Z,70.51
2023-03-29T23:01:56.270Z,70.17
2023-03-29T23:03:03.147Z,70.04
2023-03-29T23:04:08.808Z,70.14
2023-03-29T23:05:15.668Z,70.10
2023-03-29T23:06:21.025Z,69.88
2023-03-29T23:07:27.811Z,69.88
2023-03-29T23:08:34.186Z,69.63
2023-03-29T23:09:42.655Z,69.29
2023-03-29T23:10:49.211Z,69.36
2023-03-29T23:11:55.956Z,69.55
2023-03-29T23:13:10.379Z,69.60
2023-03-29T23:14:17.194Z,69.54
2023-03-29T23:15:24.276Z,69.91
2023-03-29T23:16:31.252Z,69.79
2023-03-29T23:17:36.844Z,70.48
2023-03-29T23:18:43.514Z,70.30
2023-03-29T23:19:49.424Z,70.63
2023-03-29T23:20:58.073Z,70.81
2023-03-29T23:22:03.581Z,70.87
2023-03-29T23:23:10.794Z,70.92
2023-03-29T23:24:19.230Z,70.60
2023-03-29T23:25:28.081Z,70.67
2023-03-29T23:26:33.428Z,70.43
2023-03-29T23:27:40.167Z,70.54
2023-03-29T23:28:46.291Z,70.64
2023-03-29T23:29:53.016Z,70.37
2023-03-29T23:31:01.825Z,70.35
2023-03-29T23:32:07.648Z,70.42
2023-03-29T23:33:16.058Z,70.13
2023-03-29T23:34:21.806Z,70.23
2023-03-29T23:35:28.638Z,69.94
2023-03-29T23:36:35.374Z,70.03
2023-03-29T23:37:41.076Z,70.02
2023-03-29T23:38:49.440Z,69.86
2023-03-29T23:39:55.259Z,69.64
2023-03-29T23:41:05.036Z,69.88
2023-03-29T23:42:10.934Z,69.60
2023-03-29T23:43:18.558Z,69.71
2023-03-29T23:44:24.110Z,69.66
2023-03-29T23:45:31.200Z,69.75
2023-03-29T23:46:36.633Z,69.75
2023-03-29T23:47:43.979Z,70.30
2023-03-29T23:48:51.926Z,70.04
2023-03-29T23:49:57.350Z,70.18
2023-03-29T23:51:04.198Z,70.24
2023-03-29T23:52:09.747Z,70.17
2023-03-29T23:53:17.345Z,70.17
2023-03-29T23:54:24.067Z,70.02
2023-03-29T23:55:29.497Z,69.97
2023-03-29T23:56:38.137Z,70.17
2023-03-29T23:57:43.609Z,69.97
2023-03-29T23:58:50.377Z,70.09
2023-03-29T23:59:57.246Z,70.03
